createdAt,value
2018-06-16T00:02:22.856Z,83.70
2018-06-16T00:04:51.086Z,84.20
2018-06-16T00:07:19.266Z,84.50
2018-06-16T00:09:47.548Z,84.70
2018-06-16T00:12:15.733Z,84.80
2018-06-16T00:14:43.993Z,84.60
2018-06-16T00:17:12.172Z,84.90
2018-06-16T00:19:40.355Z,84.90
2018-06-16T00:22:08.548Z,85.10
2018-06-16T00:24:36.765Z,85.30
2018-06-16T00:27:05.015Z,85.10
2018-06-16T00:29:33.234Z,85.20
2018-06-16T00:32:01.624Z,85.40
2018-06-16T00:34:29.851Z,85.60
2018-06-16T00:36:58.052Z,85.80
2018-06-16T00:39:26.221Z,86.20
2018-06-16T00:41:54.434Z,85.90
2018-06-16T00:44:22.614Z,86.10
2018-06-16T00:46:51.026Z,86.30
2018-06-16T00:49:19.221Z,86.70
2018-06-16T00:51:47.340Z,87.10
2018-06-16T00:54:15.639Z,87.10
2018-06-16T00:56:45.445Z,87.10
2018-06-16T00:59:13.665Z,86.10
2018-06-16T01:01:41.971Z,85.80
2018-06-16T01:04:10.176Z,85.00
2018-06-16T01:06:38.431Z,85.00
2018-06-16T01:09:07.228Z,84.70
2018-06-16T01:11:35.453Z,84.80
2018-06-16T01:14:03.704Z,84.70
2018-06-16T01:16:31.937Z,85.30
2018-06-16T01:19:00.135Z,85.50
2018-06-16T01:21:28.291Z,85.90
2018-06-16T01:23:56.536Z,87.00
2018-06-16T01:26:25.611Z,86.50
2018-06-16T01:28:53.850Z,86.40
2018-06-16T01:31:22.179Z,86.20
2018-06-16T01:33:50.435Z,85.70
2018-06-16T01:36:18.723Z,86.00
2018-06-16T01:38:46.938Z,85.10
2018-06-16T01:41:15.117Z,85.00
2018-06-16T01:43:43.370Z,85.30
2018-06-16T01:46:11.597Z,85.30
2018-06-16T01:48:39.740Z,85.30
2018-06-16T01:51:07.913Z,86.00
2018-06-16T01:53:36.343Z,85.80
2018-06-16T01:56:04.712Z,86.10
2018-06-16T01:58:32.930Z,86.80
2018-06-16T02:01:01.160Z,86.90
2018-06-16T02:03:29.360Z,87.30
2018-06-16T02:05:58.647Z,87.50
2018-06-16T02:08:26.947Z,87.10
2018-06-16T02:10:55.275Z,87.10
2018-06-16T02:13:23.480Z,86.90
2018-06-16T02:15:51.734Z,86.80
2018-06-16T02:18:19.916Z,87.00
2018-06-16T02:20:48.120Z,86.30
2018-06-16T02:23:16.409Z,86.20
2018-06-16T02:25:44.682Z,86.20
2018-06-16T02:28:12.836Z,86.60
2018-06-16T02:30:41.059Z,86.20
2018-06-16T02:33:09.250Z,87.60
2018-06-16T02:35:38.020Z,87.10
2018-06-16T02:38:06.178Z,87.10
2018-06-16T02:43:02.367Z,86.60
2018-06-16T02:45:30.563Z,86.40
2018-06-16T02:47:58.756Z,86.70
2018-06-16T02:50:27.153Z,87.00
2018-06-16T02:52:55.978Z,87.10
2018-06-16T02:55:24.468Z,87.30
2018-06-16T02:57:52.662Z,87.50
2018-06-16T03:00:20.836Z,87.30
2018-06-16T03:02:48.991Z,87.30
2018-06-16T03:05:17.248Z,87.30
2018-06-16T03:07:45.571Z,87.20
2018-06-16T03:10:14.847Z,86.90
2018-06-16T03:12:43.067Z,86.50
2018-06-16T03:15:11.453Z,86.50
2018-06-16T03:17:39.614Z,86.10
2018-06-16T03:20:07.880Z,85.80
2018-06-16T03:22:36.113Z,86.30
2018-06-16T03:25:04.437Z,86.60
2018-06-16T03:27:32.799Z,86.90
2018-06-16T03:30:01.102Z,86.70
2018-06-16T03:32:29.371Z,86.20
2018-06-16T03:34:57.674Z,86.30
2018-06-16T03:37:25.946Z,86.40
2018-06-16T03:39:54.223Z,85.90
2018-06-16T03:42:22.397Z,86.00
2018-06-16T03:44:51.688Z,85.50
2018-06-16T03:47:19.917Z,85.40
2018-06-16T03:49:48.181Z,85.00
2018-06-16T03:52:16.415Z,85.30
2018-06-16T03:54:44.626Z,85.30
2018-06-16T03:57:12.862Z,85.40
2018-06-16T03:59:41.041Z,85.60
2018-06-16T04:02:09.250Z,85.70
2018-06-16T04:04:37.477Z,85.80
2018-06-16T04:07:05.653Z,86.20
2018-06-16T04:09:33.902Z,86.40
2018-06-16T04:12:02.083Z,86.50
2018-06-16T04:14:30.289Z,86.80
2018-06-16T04:16:58.744Z,87.10
2018-06-16T04:19:26.951Z,87.60
2018-06-16T04:21:55.191Z,87.80
2018-06-16T04:24:23.397Z,88.20
2018-06-16T04:26:51.900Z,88.50
2018-06-16T04:29:20.108Z,88.70
2018-06-16T04:31:49.114Z,89.00
2018-06-16T04:34:17.390Z,89.30
2018-06-16T04:36:45.675Z,88.80
2018-06-16T04:39:13.853Z,88.30
2018-06-16T04:41:42.098Z,88.20
2018-06-16T04:44:10.355Z,87.10
2018-06-16T04:46:38.670Z,86.20
2018-06-16T04:49:06.876Z,84.90
2018-06-16T04:51:35.411Z,84.40
2018-06-16T04:54:03.693Z,83.70
2018-06-16T04:56:31.982Z,83.60
2018-06-16T04:59:00.334Z,83.40
2018-06-16T05:01:28.567Z,82.90
2018-06-16T05:03:56.734Z,83.00
2018-06-16T05:06:25.013Z,83.10
2018-06-16T05:08:53.201Z,82.70
2018-06-16T05:11:21.486Z,82.60
2018-06-16T05:13:49.706Z,83.20
2018-06-16T05:16:18.186Z,82.20
2018-06-16T05:18:46.577Z,82.40
2018-06-16T05:21:14.906Z,81.80
2018-06-16T05:23:43.285Z,82.10
2018-06-16T05:31:07.815Z,81.50
2018-06-16T05:33:36.120Z,81.30
2018-06-16T05:36:04.520Z,80.00
2018-06-16T05:38:32.698Z,80.30
2018-06-16T05:43:35.695Z,80.00
2018-06-16T05:46:03.948Z,78.30
2018-06-16T05:48:32.155Z,78.50
2018-06-16T05:51:00.380Z,77.70
2018-06-16T05:53:28.588Z,77.60
2018-06-16T05:55:56.880Z,77.20
2018-06-16T05:58:25.198Z,77.20
2018-06-16T06:00:53.358Z,76.40
2018-06-16T06:03:21.631Z,75.00
2018-06-16T06:05:50.981Z,75.30
2018-06-16T06:08:19.273Z,75.40
2018-06-16T06:10:47.484Z,74.60
2018-06-16T06:13:15.788Z,74.00
2018-06-16T06:15:44.145Z,73.50
2018-06-16T06:18:12.391Z,73.80
2018-06-16T06:20:40.637Z,72.20
2018-06-16T06:23:08.806Z,73.30
2018-06-16T06:25:37.334Z,72.60
2018-06-16T06:28:05.642Z,72.60
2018-06-16T06:30:33.975Z,71.80
2018-06-16T06:33:02.171Z,71.70
2018-06-16T06:35:30.484Z,72.10
2018-06-16T06:37:58.762Z,72.00
2018-06-16T06:40:27.026Z,72.20
2018-06-16T06:42:55.215Z,72.30
2018-06-16T06:45:23.605Z,71.90
2018-06-16T06:47:51.828Z,72.30
2018-06-16T06:50:20.005Z,72.00
2018-06-16T06:52:48.260Z,72.80
2018-06-16T06:55:17.689Z,73.10
2018-06-16T06:57:45.887Z,73.50
2018-06-16T07:00:14.120Z,73.80
2018-06-16T07:02:42.329Z,73.90
2018-06-16T07:05:10.712Z,73.90
2018-06-16T07:07:38.899Z,74.00
2018-06-16T07:10:07.423Z,74.30
2018-06-16T07:12:36.721Z,73.60
2018-06-16T07:15:04.976Z,73.70
2018-06-16T07:17:33.200Z,73.50
2018-06-16T07:20:01.421Z,73.00
2018-06-16T07:22:29.775Z,73.90
2018-06-16T07:24:58.194Z,74.50
2018-06-16T07:27:26.740Z,73.50
2018-06-16T07:29:55.019Z,73.30
2018-06-16T07:32:23.211Z,73.50
2018-06-16T07:37:20.823Z,73.90
2018-06-16T07:39:49.033Z,72.90
2018-06-16T07:42:17.354Z,73.60
2018-06-16T07:47:13.850Z,73.60
2018-06-16T07:49:42.124Z,73.30
2018-06-16T07:52:10.330Z,72.80
2018-06-16T07:54:38.552Z,73.30
2018-06-16T07:57:06.834Z,73.20
2018-06-16T07:59:35.780Z,73.60
2018-06-16T08:02:03.956Z,73.70
2018-06-16T08:09:28.232Z,73.00
2018-06-16T08:11:56.450Z,72.80
2018-06-16T08:14:24.756Z,72.80
2018-06-16T08:16:53.017Z,72.90
2018-06-16T08:19:21.220Z,72.70
2018-06-16T08:21:49.393Z,71.90
2018-06-16T08:24:17.547Z,72.40
2018-06-16T08:26:45.985Z,72.30
2018-06-16T08:31:42.199Z,72.60
2018-06-16T08:34:10.440Z,72.20
2018-06-16T08:36:38.832Z,71.90
2018-06-16T08:39:08.652Z,71.70
2018-06-16T08:41:37.475Z,71.70
2018-06-16T08:44:05.808Z,70.70
2018-06-16T08:46:34.456Z,70.40
2018-06-16T08:49:02.660Z,69.70
2018-06-16T08:51:30.839Z,69.50
2018-06-16T08:53:59.065Z,67.50
2018-06-16T08:56:27.271Z,67.50
2018-06-16T08:58:55.549Z,65.10
2018-06-16T09:01:23.809Z,65.80
2018-06-16T09:03:52.071Z,65.20
2018-06-16T09:08:49.579Z,63.20
2018-06-16T09:11:17.856Z,64.20
2018-06-16T09:13:46.178Z,62.30
2018-06-16T09:16:14.501Z,62.80
2018-06-16T09:18:42.743Z,62.70
2018-06-16T09:23:38.914Z,63.20
2018-06-16T09:26:07.184Z,62.80
2018-06-16T09:28:35.365Z,62.80
2018-06-16T09:31:03.566Z,62.60
2018-06-16T09:33:31.752Z,61.40
2018-06-16T09:36:00.121Z,61.70
2018-06-16T09:38:28.292Z,61.90
2018-06-16T09:40:56.544Z,61.20
2018-06-16T09:43:24.718Z,61.40
2018-06-16T09:45:52.986Z,61.40
2018-06-16T09:48:21.184Z,60.70
2018-06-16T09:50:49.365Z,60.90
2018-06-16T09:53:17.622Z,59.80
2018-06-16T09:55:46.917Z,58.80
2018-06-16T09:58:15.171Z,57.50
2018-06-16T10:00:43.369Z,58.90
2018-06-16T10:03:12.668Z,58.70
2018-06-16T10:05:41.024Z,57.80
2018-06-16T10:08:09.244Z,57.50
2018-06-16T10:10:38.184Z,57.00
2018-06-16T10:13:06.356Z,57.20
2018-06-16T10:15:34.794Z,56.60
2018-06-16T10:18:02.993Z,57.30
2018-06-16T10:20:31.238Z,54.50
2018-06-16T10:22:59.475Z,53.80
2018-06-16T10:25:27.909Z,53.30
2018-06-16T10:27:56.099Z,53.80
2018-06-16T10:30:24.302Z,53.30
2018-06-16T10:32:52.542Z,53.10
2018-06-16T10:35:20.729Z,52.00
2018-06-16T10:37:49.018Z,51.50
2018-06-16T10:40:17.287Z,48.60
2018-06-16T10:42:45.556Z,50.60
2018-06-16T10:45:13.921Z,51.30
2018-06-16T10:47:42.243Z,50.90
2018-06-16T10:50:10.530Z,51.80
2018-06-16T10:52:38.849Z,50.40
2018-06-16T10:55:07.283Z,50.00
2018-06-16T10:57:35.505Z,50.50
2018-06-16T11:00:03.868Z,50.70
2018-06-16T11:02:32.116Z,50.10
2018-06-16T11:05:00.597Z,50.00
2018-06-16T11:07:28.879Z,49.40
2018-06-16T11:09:57.148Z,50.30
2018-06-16T11:14:53.452Z,50.50
2018-06-16T11:17:21.790Z,50.30
2018-06-16T11:19:49.985Z,50.70
2018-06-16T11:22:18.192Z,52.40
2018-06-16T11:24:46.542Z,52.50
2018-06-16T11:27:14.762Z,53.20
2018-06-16T11:29:43.014Z,53.10
2018-06-16T11:32:11.170Z,53.60
2018-06-16T11:34:40.395Z,54.70
2018-06-16T11:37:08.647Z,54.20
2018-06-16T11:39:37.094Z,53.90
2018-06-16T11:42:05.739Z,54.40
2018-06-16T11:44:34.046Z,54.70
2018-06-16T11:49:30.389Z,54.90
2018-06-16T11:51:58.652Z,55.50
2018-06-16T11:54:26.934Z,55.70
2018-06-16T11:56:55.336Z,55.30
2018-06-16T11:59:23.633Z,56.30
2018-06-16T12:01:52.395Z,56.70
2018-06-16T12:04:20.639Z,57.20
2018-06-16T12:06:49.029Z,58.00
2018-06-16T12:09:17.193Z,58.50
2018-06-16T12:11:45.451Z,58.60
2018-06-16T12:14:13.641Z,58.40
2018-06-16T12:16:42.933Z,58.70
2018-06-16T12:19:11.162Z,59.40
2018-06-16T12:21:39.492Z,59.00
2018-06-16T12:24:07.697Z,59.00
2018-06-16T12:26:36.291Z,59.00
2018-06-16T12:29:04.462Z,59.40
2018-06-16T12:31:32.632Z,59.20
2018-06-16T12:34:00.895Z,59.60
2018-06-16T12:36:29.215Z,59.70
2018-06-16T12:38:57.518Z,60.60
2018-06-16T12:43:53.773Z,60.70
2018-06-16T12:46:21.996Z,61.50
2018-06-16T12:48:50.227Z,63.00
2018-06-16T12:51:18.510Z,62.30
2018-06-16T12:53:46.789Z,63.40
2018-06-16T12:58:43.148Z,64.30
2018-06-16T13:01:11.439Z,64.60
2018-06-16T13:03:39.673Z,65.10
2018-06-16T13:08:36.108Z,65.50
2018-06-16T13:11:04.297Z,66.00
2018-06-16T13:13:32.486Z,65.70
2018-06-16T13:16:00.955Z,66.00
2018-06-16T13:18:29.129Z,66.00
2018-06-16T13:20:57.364Z,66.30
2018-06-16T13:23:26.064Z,66.30
2018-06-16T13:25:55.491Z,66.10
2018-06-16T13:28:23.680Z,65.30
2018-06-16T13:30:52.008Z,65.90
2018-06-16T13:33:20.237Z,65.40
2018-06-16T13:35:48.564Z,65.60
2018-06-16T13:38:16.898Z,66.10
2018-06-16T13:40:45.141Z,65.50
2018-06-16T13:43:13.392Z,65.90
2018-06-16T13:45:42.766Z,66.20
2018-06-16T13:48:10.989Z,65.90
2018-06-16T13:50:39.358Z,64.60
2018-06-16T13:53:07.544Z,65.00
2018-06-16T13:55:36.441Z,65.50
2018-06-16T13:58:04.770Z,65.30
2018-06-16T14:00:32.991Z,65.30
2018-06-16T14:03:01.376Z,66.00
2018-06-16T14:05:29.757Z,65.30
2018-06-16T14:07:58.014Z,65.40
2018-06-16T14:10:26.217Z,64.00
2018-06-16T14:12:54.595Z,64.70
2018-06-16T14:15:24.030Z,64.80
2018-06-16T14:17:52.251Z,64.40
2018-06-16T14:20:20.439Z,64.60
2018-06-16T14:22:48.708Z,65.50
2018-06-16T14:25:17.289Z,65.50
2018-06-16T14:27:45.969Z,66.20
2018-06-16T14:30:14.187Z,66.40
2018-06-16T14:32:42.433Z,65.00
2018-06-16T14:35:10.831Z,66.20
2018-06-16T14:37:39.084Z,67.50
2018-06-16T14:40:07.274Z,69.40
2018-06-16T14:42:35.673Z,69.50
2018-06-16T14:45:03.957Z,70.00
2018-06-16T14:47:32.139Z,70.30
2018-06-16T14:50:00.380Z,69.30
2018-06-16T14:52:28.553Z,69.10
2018-06-16T14:54:56.920Z,69.30
2018-06-16T14:57:25.337Z,69.00
2018-06-16T14:59:53.622Z,67.60
2018-06-16T15:02:22.333Z,66.20
2018-06-16T15:04:51.818Z,66.70
2018-06-16T15:07:19.890Z,66.50
2018-06-16T15:09:48.110Z,65.10
2018-06-16T15:12:16.343Z,64.70
2018-06-16T15:14:44.788Z,63.50
2018-06-16T15:17:12.986Z,62.50
2018-06-16T15:19:41.220Z,62.20
2018-06-16T15:22:09.399Z,62.50
2018-06-16T15:24:38.281Z,62.00
2018-06-16T15:27:06.550Z,61.90
2018-06-16T15:29:34.830Z,61.90
2018-06-16T15:32:03.009Z,61.80
2018-06-16T15:34:31.184Z,62.80
2018-06-16T15:36:59.493Z,61.70
2018-06-16T15:39:27.756Z,61.00
2018-06-16T15:41:55.971Z,62.00
2018-06-16T15:44:24.221Z,61.80
2018-06-16T15:46:52.489Z,61.90
2018-06-16T15:49:20.779Z,61.70
2018-06-16T15:51:49.099Z,61.10
2018-06-16T15:54:17.303Z,60.80
2018-06-16T15:56:46.642Z,61.20
2018-06-16T15:59:14.865Z,61.30
2018-06-16T16:01:43.416Z,60.30
2018-06-16T16:04:12.068Z,60.20
2018-06-16T16:06:40.723Z,60.40
2018-06-16T16:09:08.944Z,60.00
2018-06-16T16:11:37.905Z,59.20
2018-06-16T16:14:06.304Z,59.30
2018-06-16T16:16:34.792Z,59.70
2018-06-16T16:19:03.087Z,59.60
2018-06-16T16:21:31.324Z,60.10
2018-06-16T16:23:59.546Z,59.80
2018-06-16T16:26:27.953Z,59.70
2018-06-16T16:28:56.134Z,59.70
2018-06-16T16:33:52.453Z,60.30
2018-06-16T16:36:20.840Z,61.20
2018-06-16T16:38:49.049Z,59.90
2018-06-16T16:41:17.284Z,60.30
2018-06-16T16:43:45.585Z,60.70
2018-06-16T16:46:13.943Z,61.40
2018-06-16T16:48:42.094Z,60.90
2018-06-16T16:51:10.257Z,61.10
2018-06-16T16:53:38.446Z,61.30
2018-06-16T16:56:06.805Z,61.00
2018-06-16T16:58:35.017Z,60.90
2018-06-16T17:01:03.299Z,60.30
2018-06-16T17:03:31.470Z,61.10
2018-06-16T17:05:59.718Z,61.60
2018-06-16T17:08:27.924Z,61.70
2018-06-16T17:10:56.082Z,61.90
2018-06-16T17:13:24.252Z,62.00
2018-06-16T17:15:52.730Z,62.30
2018-06-16T17:18:20.919Z,62.10
2018-06-16T17:20:49.173Z,62.30
2018-06-16T17:23:17.406Z,62.10
2018-06-16T17:25:45.723Z,62.40
2018-06-16T17:28:13.912Z,62.20
2018-06-16T17:35:39.260Z,61.80
2018-06-16T17:38:07.736Z,61.10
2018-06-16T17:40:35.916Z,61.00
2018-06-16T17:45:32.218Z,61.60
2018-06-16T17:48:00.386Z,61.80
2018-06-16T17:50:35.074Z,61.40
2018-06-16T17:53:03.216Z,61.50
2018-06-16T17:55:31.417Z,60.70
2018-06-16T17:57:59.639Z,60.50
2018-06-16T18:00:28.004Z,59.30
2018-06-16T18:02:56.185Z,58.60
2018-06-16T18:05:24.496Z,58.70
2018-06-16T18:07:52.826Z,57.70
2018-06-16T18:10:21.049Z,57.20
2018-06-16T18:12:49.250Z,57.00
2018-06-16T18:15:17.552Z,57.00
2018-06-16T18:17:45.797Z,55.90
2018-06-16T18:20:13.963Z,56.10
2018-06-16T18:22:42.163Z,55.90
2018-06-16T18:25:10.526Z,56.20
2018-06-16T18:27:38.746Z,57.10
2018-06-16T18:30:07.876Z,56.80
2018-06-16T18:32:36.287Z,56.90
2018-06-16T18:35:04.603Z,57.90
2018-06-16T18:37:32.764Z,57.80
2018-06-16T18:40:00.938Z,58.20
2018-06-16T18:42:29.102Z,58.80
2018-06-16T18:44:58.486Z,59.10
2018-06-16T18:47:26.811Z,59.80
2018-06-16T18:49:55.153Z,60.50
2018-06-16T18:52:23.285Z,60.80
2018-06-16T18:54:51.614Z,61.30
2018-06-16T18:57:19.809Z,61.90
2018-06-16T19:02:16.019Z,61.90
2018-06-16T19:04:44.354Z,62.10
2018-06-16T19:07:12.605Z,62.10
2018-06-16T19:12:08.775Z,62.20
2018-06-16T19:14:37.021Z,62.20
2018-06-16T19:17:05.239Z,62.40
2018-06-16T19:19:33.438Z,62.70
2018-06-16T19:22:01.644Z,62.40
2018-06-16T19:24:29.891Z,62.30
2018-06-16T19:27:00.357Z,62.20
2018-06-16T19:29:28.618Z,62.50
2018-06-16T19:34:24.868Z,61.70
2018-06-16T19:36:53.124Z,61.80
2018-06-16T19:39:21.401Z,61.80
2018-06-16T19:41:49.576Z,61.90
2018-06-16T19:44:17.752Z,62.10
2018-06-16T19:46:45.994Z,62.60
2018-06-16T19:49:14.183Z,62.20
2018-06-16T19:51:42.399Z,63.40
2018-06-16T19:54:10.542Z,62.80
2018-06-16T19:56:38.977Z,63.10
2018-06-16T19:59:07.211Z,63.30
2018-06-16T20:01:35.347Z,63.30
2018-06-16T20:04:03.653Z,63.30
2018-06-16T20:06:32.038Z,63.30
2018-06-16T20:09:00.303Z,63.30
2018-06-16T20:11:28.749Z,63.50
2018-06-16T20:13:57.056Z,63.50
2018-06-16T20:16:25.341Z,64.00
2018-06-16T20:18:53.769Z,64.10
2018-06-16T20:21:22.113Z,63.80
2018-06-16T20:23:50.373Z,64.00
2018-06-16T20:26:18.662Z,64.10
2018-06-16T20:28:47.018Z,64.10
2018-06-16T20:31:16.016Z,64.20
2018-06-16T20:33:44.536Z,64.30
2018-06-16T20:36:14.679Z,64.30
2018-06-16T20:38:43.035Z,64.40
2018-06-16T20:41:11.338Z,64.70
2018-06-16T20:43:39.497Z,64.50
2018-06-16T20:46:08.985Z,64.80
2018-06-16T20:48:37.300Z,65.00
2018-06-16T20:51:06.335Z,65.20
2018-06-16T20:53:35.449Z,65.40
2018-06-16T20:56:05.250Z,65.50
2018-06-16T20:58:33.584Z,65.70
2018-06-16T21:01:01.906Z,66.00
2018-06-16T21:03:30.143Z,66.20
2018-06-16T21:05:58.370Z,66.30
2018-06-16T21:08:26.788Z,66.60
2018-06-16T21:10:54.972Z,67.00
2018-06-16T21:13:23.323Z,67.70
2018-06-16T21:15:51.711Z,66.50
2018-06-16T21:18:19.959Z,66.70
2018-06-16T21:20:48.213Z,66.80
2018-06-16T21:23:16.415Z,66.90
2018-06-16T21:25:44.677Z,66.80
2018-06-16T21:28:12.934Z,66.80
2018-06-16T21:30:41.211Z,66.90
2018-06-16T21:33:09.493Z,67.00
2018-06-16T21:35:38.015Z,67.10
2018-06-16T21:38:06.232Z,67.40
2018-06-16T21:40:34.436Z,67.60
2018-06-16T21:43:02.733Z,67.70
2018-06-16T21:45:32.039Z,67.90
2018-06-16T21:48:00.255Z,68.40
2018-06-16T21:50:28.449Z,68.60
2018-06-16T21:52:56.652Z,69.00
2018-06-16T21:55:24.917Z,68.90
2018-06-16T21:57:53.114Z,69.20
2018-06-16T22:00:21.352Z,69.30
2018-06-16T22:02:50.005Z,70.10
2018-06-16T22:05:18.496Z,70.10
2018-06-16T22:07:47.343Z,70.50
2018-06-16T22:10:15.639Z,70.80
2018-06-16T22:12:44.684Z,71.00
2018-06-16T22:15:13.088Z,71.50
2018-06-16T22:20:09.323Z,72.20
2018-06-16T22:22:37.483Z,72.60
2018-06-16T22:25:05.840Z,72.90
2018-06-16T22:27:34.016Z,73.20
2018-06-16T22:30:02.437Z,73.60
2018-06-16T22:32:30.692Z,74.00
2018-06-16T22:34:58.971Z,74.60
2018-06-16T22:37:27.201Z,74.70
2018-06-16T22:39:55.388Z,74.80
2018-06-16T22:42:23.608Z,75.50
2018-06-16T22:44:53.017Z,75.70
2018-06-16T22:47:21.326Z,76.00
2018-06-16T22:49:49.581Z,76.40
2018-06-16T22:52:17.775Z,76.30
2018-06-16T22:54:46.089Z,76.40
2018-06-16T22:57:14.282Z,76.40
2018-06-16T22:59:42.509Z,76.70
2018-06-16T23:02:10.872Z,76.40
2018-06-16T23:04:39.129Z,76.40
2018-06-16T23:07:07.316Z,76.60
2018-06-16T23:09:35.553Z,76.80
2018-06-16T23:12:03.765Z,76.90
2018-06-16T23:14:35.911Z,77.50
2018-06-16T23:17:04.464Z,77.10
2018-06-16T23:22:00.784Z,77.30
2018-06-16T23:24:29.071Z,77.50
2018-06-16T23:26:57.592Z,77.70
2018-06-16T23:31:53.870Z,78.80
2018-06-16T23:34:22.156Z,79.20
2018-06-16T23:36:50.534Z,79.20
2018-06-16T23:39:18.804Z,79.90
2018-06-16T23:41:46.967Z,79.70
2018-06-16T23:44:15.264Z,79.90
2018-06-16T23:46:43.665Z,80.40
2018-06-16T23:49:12.099Z,80.30
2018-06-16T23:51:40.321Z,79.80
2018-06-16T23:54:08.709Z,80.60
2018-06-16T23:56:37.065Z,80.60
2018-06-16T23:59:05.314Z,80.60
